Time;durP1;ratioP1;P1;durP2;ratioP2;P2;SDS_P1;SDS_P2;PMS_P1;PMS_P2;Temp;Humidity;BMP_temperature;BMP_pressure;BME280_temperature;BME280_humidity;BME280_pressure;Samples;Min_cycle;Max_cycle;Signal;HPM_P1;HPM_P2
2022/09/25 00:02:13;;;;;;;14.60;11.30;;;13.80;99.90;;;;;;5062658;28;20516;-81
2022/09/25 00:04:57;;;;;;;19.63;13.33;;;13.70;99.90;;;;;;5063946;28;20782;-80
2022/09/25 00:07:42;;;;;;;14.97;12.27;;;13.70;99.90;;;;;;5061949;28;20386;-81
2022/09/25 00:10:28;;;;;;;15.57;12.90;;;13.70;99.90;;;;;;5063897;28;20458;-80
2022/09/25 00:13:14;;;;;;;17.00;13.43;;;13.70;99.90;;;;;;5063572;28;20401;-80
2022/09/25 00:15:59;;;;;;;20.53;13.07;;;13.60;99.90;;;;;;5063569;28;20386;-81
2022/09/25 00:21:52;;;;;;;23.47;14.50;;;13.60;99.90;;;;;;5062866;28;20446;-80
2022/09/25 00:24:37;;;;;;;14.33;12.83;;;13.60;99.90;;;;;;5063090;28;20386;-82
2022/09/25 00:27:21;;;;;;;12.17;10.93;;;13.60;99.90;;;;;;5063409;28;20386;-81
2022/09/25 00:30:07;;;;;;;16.20;13.53;;;13.60;99.90;;;;;;5062033;28;20428;-80
2022/09/25 00:32:52;;;;;;;14.07;12.63;;;13.60;99.90;;;;;;5061669;28;20436;-80
2022/09/25 00:35:36;;;;;;;14.33;13.00;;;13.70;99.90;;;;;;5062073;28;20478;-81
2022/09/25 00:38:21;;;;;;;14.43;12.93;;;13.70;99.90;;;;;;5061217;28;20416;-80
2022/09/25 00:41:07;;;;;;;14.50;12.67;;;13.80;99.90;;;;;;5060498;28;20394;-81
2022/09/25 00:43:55;;;;;;;13.60;12.20;;;13.70;99.90;;;;;;5062153;28;20902;-80
2022/09/25 00:46:42;;;;;;;18.00;13.17;;;13.70;99.90;;;;;;5062652;28;20414;-80
2022/09/25 00:49:27;;;;;;;14.97;13.50;;;13.70;99.90;;;;;;5061740;28;20739;-80
2022/09/25 00:52:12;;;;;;;14.40;13.00;;;13.60;99.90;;;;;;5062039;28;20398;-79
2022/09/25 00:55:02;;;;;;;16.20;12.53;;;13.70;99.90;;;;;;5061572;28;20917;-80
2022/09/25 00:57:49;;;;;;;20.60;12.47;;;13.70;99.90;;;;;;5060959;28;20440;-80
2022/09/25 01:00:34;;;;;;;15.93;13.47;;;13.70;99.90;;;;;;5062358;28;20396;-80
2022/09/25 01:03:20;;;;;;;13.90;11.93;;;13.60;99.90;;;;;;5061656;28;20397;-81
2022/09/25 01:06:05;;;;;;;16.07;12.27;;;13.60;99.90;;;;;;5061075;28;20382;-79
2022/09/25 01:08:49;;;;;;;16.87;15.07;;;13.60;99.90;;;;;;5064437;28;20392;-80
2022/09/25 01:11:34;;;;;;;16.30;14.70;;;13.50;99.90;;;;;;5081359;28;20754;-81
2022/09/25 01:14:19;;;;;;;17.87;14.40;;;13.60;99.90;;;;;;5081863;28;20428;-81
2022/09/25 01:17:27;;;;;;;15.60;14.10;;;13.60;99.90;;;;;;5082266;28;20396;-81
2022/09/25 01:20:43;;;;;;;27.13;13.67;;;13.50;99.90;;;;;;5081616;28;20382;-81
2022/09/25 01:23:46;;;;;;;16.70;13.17;;;13.50;99.90;;;;;;5087939;28;20393;-80
2022/09/25 01:27:10;;;;;;;15.40;12.83;;;13.50;99.90;;;;;;5091210;28;20457;-80
2022/09/25 01:30:09;;;;;;;18.83;13.40;;;13.40;99.90;;;;;;5075909;28;20392;-80
2022/09/25 01:33:17;;;;;;;14.50;13.00;;;13.30;99.90;;;;;;5091644;28;20409;-80
2022/09/25 01:36:13;;;;;;;17.40;13.60;;;13.30;99.90;;;;;;5091624;28;20462;-80
2022/09/25 01:39:20;;;;;;;19.50;14.87;;;13.30;99.90;;;;;;5090572;28;20404;-79
2022/09/25 01:42:12;;;;;;;15.30;11.93;;;13.30;99.90;;;;;;5090768;28;20444;-80
2022/09/25 01:45:03;;;;;;;15.73;13.83;;;13.30;99.90;;;;;;5090237;28;20454;-80
2022/09/25 01:47:50;;;;;;;15.30;12.90;;;13.20;99.90;;;;;;5090405;28;20456;-80
2022/09/25 01:50:45;;;;;;;17.10;13.40;;;13.20;99.90;;;;;;5091185;28;20389;-79
2022/09/25 01:53:45;;;;;;;16.60;13.13;;;13.10;99.90;;;;;;5090432;28;20393;-79
2022/09/25 01:56:40;;;;;;;15.75;13.93;;;13.10;99.90;;;;;;5089360;28;20437;-80
2022/09/25 01:59:34;;;;;;;14.37;12.87;;;13.10;99.90;;;;;;5089503;28;20170;-82
2022/09/25 02:02:24;;;;;;;14.67;13.10;;;13.10;99.90;;;;;;5091528;28;20813;-82
2022/09/25 02:05:18;;;;;;;15.70;13.30;;;13.20;99.90;;;;;;5081844;28;20392;-81
2022/09/25 02:08:08;;;;;;;13.70;12.30;;;13.10;99.90;;;;;;5082667;28;20460;-81
2022/09/25 02:10:58;;;;;;;20.30;13.03;;;13.20;99.90;;;;;;5082562;28;20715;-81
2022/09/25 02:13:48;;;;;;;14.87;13.37;;;13.30;99.90;;;;;;5082448;28;20380;-81
2022/09/25 02:16:37;;;;;;;12.90;11.60;;;13.30;99.90;;;;;;5082172;28;20732;-81
2022/09/25 02:22:32;;;;;;;14.97;13.40;;;13.30;99.90;;;;;;5081422;28;20464;-81
2022/09/25 02:25:26;;;;;;;17.30;13.27;;;13.30;99.90;;;;;;5083778;28;20477;-81
2022/09/25 02:28:11;;;;;;;14.80;12.97;;;13.30;99.90;;;;;;5081135;28;20408;-81
2022/09/25 02:30:58;;;;;;;14.53;12.73;;;13.30;99.90;;;;;;5080928;28;20393;-81
2022/09/25 02:33:42;;;;;;;16.00;13.63;;;13.30;99.90;;;;;;5066001;28;20457;-81
2022/09/25 02:36:28;;;;;;;15.03;13.40;;;13.20;99.90;;;;;;5081162;28;20393;-81
2022/09/25 02:39:16;;;;;;;21.57;14.27;;;13.20;99.90;;;;;;5081233;28;20381;-81
2022/09/25 02:42:19;;;;;;;15.57;13.53;;;13.30;99.90;;;;;;5081329;28;20441;-82
2022/09/25 02:45:16;;;;;;;16.70;14.67;;;13.40;99.90;;;;;;5080950;28;20427;-81
2022/09/25 02:48:11;;;;;;;15.63;13.50;;;13.50;99.90;;;;;;5065370;28;20957;-81
2022/09/25 02:51:24;;;;;;;15.20;13.30;;;13.70;99.90;;;;;;5081177;28;20393;-81
2022/09/25 02:54:20;;;;;;;17.53;13.47;;;13.80;99.90;;;;;;5080798;28;20389;-81
2022/09/25 02:57:11;;;;;;;16.13;14.40;;;13.80;99.90;;;;;;5081096;28;20416;-81
2022/09/25 03:00:03;;;;;;;14.10;12.63;;;13.90;99.90;;;;;;5081150;28;20393;-81
2022/09/25 03:02:51;;;;;;;13.47;12.07;;;13.90;99.90;;;;;;5080962;28;20611;-81
2022/09/25 03:05:36;;;;;;;14.87;12.17;;;13.90;99.90;;;;;;5080836;28;20397;-82
2022/09/25 03:11:20;;;;;;;15.20;12.17;;;13.90;99.90;;;;;;5081631;28;20385;-81
2022/09/25 03:14:04;;;;;;;13.87;12.40;;;13.90;99.90;;;;;;5081870;28;20406;-81
2022/09/25 03:16:55;;;;;;;16.83;11.67;;;13.80;99.90;;;;;;5086597;28;20478;-80
2022/09/25 03:19:39;;;;;;;12.73;11.53;;;13.80;99.90;;;;;;5085666;28;20484;-82
2022/09/25 03:22:24;;;;;;;12.40;11.10;;;13.90;99.90;;;;;;5081726;28;20510;-81
2022/09/25 03:25:09;;;;;;;13.67;11.80;;;13.90;99.90;;;;;;5080828;28;20388;-81
2022/09/25 03:27:53;;;;;;;14.83;10.47;;;13.80;99.90;;;;;;5081609;28;20450;-81
2022/09/25 03:30:39;;;;;;;13.87;11.90;;;13.70;99.90;;;;;;5080905;28;20784;-81
2022/09/25 03:33:27;;;;;;;15.17;11.93;;;13.60;99.90;;;;;;5080734;28;20491;-81
2022/09/25 03:36:15;;;;;;;11.97;10.80;;;13.50;99.90;;;;;;5080768;28;20436;-81
2022/09/25 03:39:00;;;;;;;17.07;10.30;;;13.50;99.90;;;;;;5080943;28;20767;-81
2022/09/25 03:41:44;;;;;;;12.30;11.00;;;13.50;99.90;;;;;;5068374;28;20854;-81
2022/09/25 03:44:29;;;;;;;14.90;9.73;;;13.60;99.90;;;;;;5085362;28;20397;-81
2022/09/25 03:47:14;;;;;;;12.70;11.50;;;13.60;99.90;;;;;;5066400;28;20413;-81
2022/09/25 03:49:58;;;;;;;11.93;10.83;;;13.50;99.90;;;;;;5057337;28;20509;-81
2022/09/25 03:52:43;;;;;;;16.07;11.53;;;13.40;99.90;;;;;;5058385;28;20424;-81
2022/09/25 03:55:28;;;;;;;13.73;11.80;;;13.40;99.90;;;;;;5064204;28;20471;-81
2022/09/25 03:58:15;;;;;;;11.40;10.27;;;13.30;99.90;;;;;;5064293;28;20406;-81
2022/09/25 04:01:00;;;;;;;15.43;11.83;;;13.30;99.90;;;;;;5064495;28;20469;-81
2022/09/25 04:03:46;;;;;;;11.70;10.60;;;13.10;99.90;;;;;;5064750;28;20416;-81
2022/09/25 04:06:30;;;;;;;15.00;10.87;;;13.00;99.90;;;;;;5064691;28;20394;-81
2022/09/25 04:09:15;;;;;;;18.30;11.63;;;13.10;99.90;;;;;;5064043;28;20487;-81
2022/09/25 04:11:59;;;;;;;14.90;12.50;;;13.00;99.90;;;;;;5064638;28;20506;-81
2022/09/25 04:14:45;;;;;;;12.57;11.37;;;12.90;99.90;;;;;;5064288;28;20386;-81
2022/09/25 04:17:30;;;;;;;14.50;12.60;;;12.90;99.90;;;;;;5063717;28;20460;-81
2022/09/25 04:20:15;;;;;;;14.60;12.40;;;12.90;99.90;;;;;;5064300;28;20437;-81
2022/09/25 04:22:59;;;;;;;15.50;11.73;;;12.90;99.90;;;;;;5063771;28;20440;-81
2022/09/25 04:25:44;;;;;;;13.67;12.27;;;13.00;99.90;;;;;;5064016;28;20898;-81
2022/09/25 04:28:30;;;;;;;14.13;11.67;;;12.90;99.90;;;;;;5063559;28;20401;-81
2022/09/25 04:31:14;;;;;;;15.50;12.37;;;13.00;99.90;;;;;;5063982;28;20447;-81
2022/09/25 04:34:01;;;;;;;17.30;12.10;;;12.90;99.90;;;;;;5063665;28;20496;-81
2022/09/25 04:36:45;;;;;;;16.03;13.83;;;12.80;99.90;;;;;;5062620;28;20421;-81
2022/09/25 04:39:30;;;;;;;14.93;13.13;;;12.70;99.90;;;;;;5063741;28;20387;-81
2022/09/25 04:42:14;;;;;;;15.07;13.57;;;12.70;99.90;;;;;;5062732;28;20517;-81
2022/09/25 04:44:59;;;;;;;17.83;12.70;;;12.80;99.90;;;;;;5062835;28;20393;-81
2022/09/25 04:47:44;;;;;;;16.70;12.40;;;12.90;99.90;;;;;;5063962;28;20451;-81
2022/09/25 04:50:29;;;;;;;13.17;11.77;;;12.80;99.90;;;;;;5062949;28;20430;-81
2022/09/25 04:53:14;;;;;;;16.20;14.70;;;12.80;99.90;;;;;;5061448;28;20412;-81
2022/09/25 04:56:03;;;;;;;16.80;15.00;;;12.90;99.90;;;;;;5063377;28;20533;-81
2022/09/25 04:58:49;;;;;;;22.27;14.23;;;12.90;99.90;;;;;;5062961;28;20739;-81
2022/09/25 05:01:33;;;;;;;15.33;13.03;;;12.90;99.90;;;;;;5061987;28;20497;-81
2022/09/25 05:04:19;;;;;;;13.50;12.30;;;13.00;99.90;;;;;;5063377;28;20494;-79
2022/09/25 05:07:03;;;;;;;14.97;13.47;;;13.00;99.90;;;;;;5062734;28;20378;-81
2022/09/25 05:09:48;;;;;;;17.90;13.10;;;13.00;99.90;;;;;;5063000;28;20446;-81
2022/09/25 05:12:34;;;;;;;18.83;14.90;;;13.10;99.90;;;;;;5061416;28;20742;-81
2022/09/25 05:15:18;;;;;;;18.70;13.60;;;13.10;99.90;;;;;;5062897;28;20405;-81
2022/09/25 05:18:06;;;;;;;18.83;13.57;;;13.10;99.90;;;;;;5063204;28;20474;-81
2022/09/25 05:20:53;;;;;;;19.60;12.70;;;13.20;99.90;;;;;;5061680;28;20433;-81
2022/09/25 05:23:37;;;;;;;17.07;13.27;;;13.20;99.90;;;;;;5063307;28;20890;-81
2022/09/25 05:26:22;;;;;;;16.10;13.57;;;13.10;99.90;;;;;;5063175;28;20893;-81
2022/09/25 05:29:06;;;;;;;21.20;13.60;;;13.10;99.90;;;;;;5062639;28;20458;-80
2022/09/25 05:31:51;;;;;;;14.00;12.60;;;13.10;99.90;;;;;;5062784;28;20408;-80
2022/09/25 05:34:36;;;;;;;12.90;11.50;;;13.00;99.90;;;;;;5060827;28;20414;-80
2022/09/25 05:37:20;;;;;;;25.67;15.00;;;13.00;99.90;;;;;;5061988;28;20451;-80
2022/09/25 05:40:05;;;;;;;25.23;16.83;;;13.00;99.90;;;;;;5062537;28;20377;-80
2022/09/25 05:42:51;;;;;;;15.93;13.70;;;13.00;99.90;;;;;;5062355;28;20492;-80
2022/09/25 05:45:35;;;;;;;18.17;14.37;;;13.00;99.90;;;;;;5062752;28;20437;-80
2022/09/25 05:48:20;;;;;;;16.27;13.37;;;12.90;99.90;;;;;;5062035;28;20401;-80
2022/09/25 05:51:05;;;;;;;18.57;14.10;;;12.90;99.90;;;;;;5061394;28;20386;-80
2022/09/25 05:53:51;;;;;;;19.93;14.90;;;13.00;99.90;;;;;;5061726;28;20402;-80
2022/09/25 05:56:36;;;;;;;17.03;13.63;;;12.90;99.90;;;;;;5061349;28;20417;-80
2022/09/25 05:59:20;;;;;;;16.30;13.40;;;12.90;99.90;;;;;;5062036;28;20400;-80
2022/09/25 06:02:05;;;;;;;24.57;14.70;;;12.90;99.90;;;;;;5062118;28;20491;-80
2022/09/25 06:04:50;;;;;;;16.27;13.83;;;13.00;99.90;;;;;;5061974;28;20390;-80
2022/09/25 06:07:37;;;;;;;17.77;13.90;;;13.10;99.90;;;;;;5062100;28;20382;-80
2022/09/25 06:10:24;;;;;;;15.03;13.27;;;13.20;99.90;;;;;;5061889;28;20378;-79
2022/09/25 06:13:08;;;;;;;21.20;13.30;;;13.30;99.90;;;;;;5061673;28;20386;-80
2022/09/25 06:15:53;;;;;;;16.47;13.10;;;13.30;99.90;;;;;;5062231;28;20843;-80
2022/09/25 06:18:37;;;;;;;15.63;12.87;;;13.40;99.90;;;;;;5060912;28;20452;-80
2022/09/25 06:21:22;;;;;;;20.37;14.90;;;13.40;99.90;;;;;;5064302;28;20445;-78
2022/09/25 06:24:07;;;;;;;12.67;11.10;;;13.60;99.90;;;;;;5066858;28;20409;-79
2022/09/25 06:26:52;;;;;;;15.30;12.60;;;13.70;99.90;;;;;;5066346;28;20386;-79
2022/09/25 06:29:36;;;;;;;14.93;13.50;;;13.90;99.90;;;;;;5067346;28;20879;-79
2022/09/25 06:32:22;;;;;;;17.67;12.90;;;13.90;99.90;;;;;;5066038;28;20394;-79
2022/09/25 06:35:07;;;;;;;15.10;12.20;;;14.00;99.90;;;;;;5064702;28;20525;-79
2022/09/25 06:37:55;;;;;;;16.07;11.37;;;14.10;99.90;;;;;;5066358;28;20433;-78
2022/09/25 06:40:40;;;;;;;12.60;11.27;;;14.10;99.90;;;;;;5065734;28;20417;-79
2022/09/25 06:43:26;;;;;;;11.13;10.03;;;14.20;99.90;;;;;;5066070;28;20445;-79
2022/09/25 06:46:10;;;;;;;15.37;12.30;;;14.20;99.90;;;;;;5066969;28;20441;-79
2022/09/25 06:48:56;;;;;;;12.27;10.27;;;14.20;99.90;;;;;;5066608;28;20397;-79
2022/09/25 06:51:41;;;;;;;14.67;11.90;;;14.30;99.90;;;;;;5068943;28;20451;-81
2022/09/25 06:54:30;;;;;;;13.67;11.07;;;14.30;99.90;;;;;;5068031;28;20390;-80
2022/09/25 06:57:14;;;;;;;11.37;10.27;;;14.40;99.90;;;;;;5061541;28;20461;-81
2022/09/25 06:59:59;;;;;;;10.87;9.77;;;14.40;99.90;;;;;;5065879;28;20413;-80
2022/09/25 07:05:43;;;;;;;11.37;10.17;;;14.50;99.90;;;;;;5062787;28;20426;-81
2022/09/25 07:08:28;;;;;;;13.67;11.93;;;14.50;99.90;;;;;;5060306;28;20464;-81
2022/09/25 07:11:17;;;;;;;13.10;11.70;;;14.50;99.90;;;;;;5059577;28;20390;-81
2022/09/25 07:14:02;;;;;;;13.53;11.23;;;14.40;99.90;;;;;;5059839;28;20398;-81
2022/09/25 07:16:46;;;;;;;13.20;11.33;;;14.40;99.90;;;;;;5062139;28;20432;-81
2022/09/25 07:19:31;;;;;;;12.93;11.73;;;14.30;99.90;;;;;;5064299;28;20409;-81
2022/09/25 07:22:16;;;;;;;15.73;10.80;;;14.30;99.90;;;;;;5063703;28;20988;-81
2022/09/25 07:25:00;;;;;;;14.10;12.63;;;14.30;99.90;;;;;;5063207;28;20939;-81
2022/09/25 07:28:06;;;;;;;13.37;11.97;;;14.40;99.90;;;;;;5041813;28;20402;-82
2022/09/25 07:30:51;;;;;;;14.57;13.20;;;14.40;99.90;;;;;;5034114;28;20455;-82
2022/09/25 07:33:35;;;;;;;15.37;12.00;;;14.40;99.90;;;;;;5042829;28;20386;-82
2022/09/25 07:36:20;;;;;;;19.70;13.47;;;14.30;99.90;;;;;;5042662;28;20530;-81
2022/09/25 07:39:05;;;;;;;15.83;14.17;;;14.30;99.90;;;;;;5043081;28;20395;-82
2022/09/25 07:41:53;;;;;;;20.00;13.80;;;14.10;99.90;;;;;;5034159;28;20462;-82
2022/09/25 07:44:38;;;;;;;19.40;14.47;;;14.00;99.90;;;;;;5027688;28;20441;-82
2022/09/25 07:47:23;;;;;;;17.67;15.00;;;14.00;99.90;;;;;;5042149;28;20833;-81
2022/09/25 07:50:08;;;;;;;20.33;16.27;;;13.90;99.90;;;;;;5041065;28;20759;-82
2022/09/25 07:52:54;;;;;;;20.50;14.80;;;13.90;99.90;;;;;;5040564;28;20426;-82
2022/09/25 07:55:38;;;;;;;21.80;15.87;;;13.90;99.90;;;;;;5041071;28;20394;-81
2022/09/25 07:58:22;;;;;;;27.07;16.77;;;14.00;99.90;;;;;;5049123;28;20476;-81
2022/09/25 08:01:11;;;;;;;18.80;16.27;;;14.10;99.90;;;;;;5063546;28;20523;-82
2022/09/25 08:03:55;;;;;;;20.10;15.30;;;14.10;99.90;;;;;;5062474;28;20393;-82
2022/09/25 08:06:40;;;;;;;23.30;18.20;;;13.90;99.90;;;;;;5063453;28;20504;-81
2022/09/25 08:09:24;;;;;;;17.80;15.80;;;13.90;99.90;;;;;;5063153;28;20390;-82
2022/09/25 08:12:11;;;;;;;20.40;15.00;;;14.00;99.90;;;;;;5063643;28;20394;-83
2022/09/25 08:14:56;;;;;;;23.30;18.83;;;13.90;99.90;;;;;;5063147;28;20773;-81
2022/09/25 08:17:41;;;;;;;20.80;16.70;;;14.10;99.90;;;;;;5063230;28;20798;-81
2022/09/25 08:20:26;;;;;;;25.40;17.13;;;14.00;99.90;;;;;;5063941;28;20868;-82
2022/09/25 08:23:11;;;;;;;23.60;17.70;;;14.00;99.90;;;;;;5063301;28;21030;-81
2022/09/25 08:25:55;;;;;;;24.33;18.00;;;13.90;99.90;;;;;;5064092;28;20409;-83
2022/09/25 08:28:40;;;;;;;23.53;18.40;;;14.00;99.90;;;;;;5063696;28;20397;-80
2022/09/25 08:31:25;;;;;;;29.33;18.30;;;14.10;99.90;;;;;;5065222;28;20417;-80
2022/09/25 08:34:09;;;;;;;22.83;18.03;;;14.20;99.90;;;;;;5057708;28;20465;-80
2022/09/25 08:36:54;;;;;;;21.93;17.47;;;14.20;99.90;;;;;;5062493;28;20909;-81
2022/09/25 08:39:39;;;;;;;26.10;17.43;;;14.00;99.90;;;;;;5064661;28;20397;-83
2022/09/25 08:42:31;;;;;;;23.10;16.50;;;14.00;99.90;;;;;;5063312;28;20441;-80
2022/09/25 08:51:52;;;;;;;21.17;17.90;;;14.00;99.90;;;;;;5064092;28;20547;-81
2022/09/25 08:54:38;;;;;;;22.80;15.97;;;14.00;99.90;;;;;;5065677;28;20386;-81
2022/09/25 08:57:34;;;;;;;19.67;16.60;;;14.10;99.90;;;;;;5068426;28;20429;-80
2022/09/25 09:00:21;;;;;;;31.73;22.40;;;14.30;99.90;;;;;;5068949;28;20537;-79
2022/09/25 09:03:10;;;;;;;22.13;17.43;;;14.30;99.90;;;;;;5070319;28;20437;-79
2022/09/25 09:06:04;;;;;;;22.93;17.10;;;14.10;99.90;;;;;;5070483;28;20398;-79
2022/09/25 09:08:56;;;;;;;22.80;17.57;;;14.00;99.90;;;;;;5065072;28;20382;-80
2022/09/25 09:11:47;;;;;;;25.03;16.93;;;14.00;99.90;;;;;;5069896;28;20402;-79
2022/09/25 09:14:43;;;;;;;26.00;15.53;;;14.00;99.90;;;;;;5071400;28;20390;-81
2022/09/25 09:17:40;;;;;;;23.67;16.17;;;14.00;99.90;;;;;;5069684;28;20394;-81
2022/09/25 09:20:40;;;;;;;24.07;18.57;;;13.90;99.90;;;;;;5067516;28;20386;-79
2022/09/25 09:23:39;;;;;;;19.87;16.13;;;13.90;99.90;;;;;;5065442;28;20862;-83
2022/09/25 09:26:48;;;;;;;21.90;16.60;;;14.00;99.90;;;;;;5061926;28;20941;-81
2022/09/25 09:29:59;;;;;;;24.57;14.53;;;13.90;99.90;;;;;;5059328;28;20469;-81
2022/09/25 09:33:23;;;;;;;20.83;15.53;;;13.90;99.90;;;;;;5060750;28;20398;-80
2022/09/25 09:36:47;;;;;;;21.50;15.67;;;14.00;99.90;;;;;;5061084;28;20393;-82
2022/09/25 09:40:00;;;;;;;20.10;16.70;;;14.00;99.90;;;;;;5058277;28;20477;-82
2022/09/25 09:43:04;;;;;;;23.47;16.00;;;14.30;99.90;;;;;;5059371;28;20441;-80
2022/09/25 09:46:28;;;;;;;21.10;15.17;;;14.70;99.90;;;;;;5061349;28;20512;-82
2022/09/25 09:49:28;;;;;;;25.87;17.83;;;15.10;99.90;;;;;;5039405;28;20406;-82
2022/09/25 09:52:19;;;;;;;24.70;16.60;;;15.30;99.90;;;;;;5039307;28;20399;-82
2022/09/25 09:55:24;;;;;;;23.93;16.13;;;15.50;99.90;;;;;;5039694;28;20794;-82
2022/09/25 09:58:24;;;;;;;23.60;16.13;;;15.60;99.90;;;;;;5026716;28;20437;-82
2022/09/25 10:01:12;;;;;;;19.23;14.80;;;15.60;99.90;;;;;;5040511;28;20509;-82
2022/09/25 10:04:07;;;;;;;21.50;13.73;;;15.60;99.90;;;;;;5042372;28;20403;-82
2022/09/25 10:07:10;;;;;;;20.17;13.97;;;15.50;99.90;;;;;;5026293;28;20514;-82
2022/09/25 10:09:55;;;;;;;13.97;12.53;;;15.40;99.90;;;;;;5038959;28;20887;-82
2022/09/25 10:12:46;;;;;;;19.00;12.03;;;15.30;99.90;;;;;;5038947;28;20465;-82
2022/09/25 10:15:36;;;;;;;15.73;11.00;;;15.20;99.90;;;;;;5038543;28;20379;-82
2022/09/25 10:18:24;;;;;;;11.10;9.90;;;15.00;99.90;;;;;;5038878;28;20391;-82
2022/09/25 10:21:15;;;;;;;10.63;9.57;;;15.00;99.90;;;;;;5071359;28;20471;-82
2022/09/25 10:24:02;;;;;;;15.03;11.30;;;14.90;99.90;;;;;;5082086;28;20401;-81
2022/09/25 10:26:47;;;;;;;12.47;10.53;;;14.80;99.90;;;;;;5082150;28;20381;-82
2022/09/25 10:29:32;;;;;;;15.87;10.73;;;14.80;99.90;;;;;;5080775;28;20385;-81
2022/09/25 10:32:17;;;;;;;19.23;11.30;;;14.70;99.90;;;;;;5081256;28;20385;-81
2022/09/25 10:35:03;;;;;;;17.33;12.43;;;14.60;99.90;;;;;;5066614;28;20385;-82
2022/09/25 10:37:52;;;;;;;12.80;11.53;;;14.60;99.90;;;;;;5081625;28;20826;-82
2022/09/25 10:40:37;;;;;;;15.73;11.70;;;14.70;99.90;;;;;;5038198;28;20438;-81
2022/09/25 10:43:23;;;;;;;12.37;11.10;;;14.60;99.90;;;;;;5038158;28;20430;-80
2022/09/25 10:46:12;;;;;;;14.10;11.80;;;14.50;99.90;;;;;;5039049;28;20418;-79
2022/09/25 10:52:18;;;;;;;13.13;11.63;;;14.40;99.90;;;;;;5041584;28;20410;-79
2022/09/25 10:55:26;;;;;;;17.33;11.83;;;14.30;99.90;;;;;;5045814;28;20395;-78
2022/09/25 10:58:21;;;;;;;18.60;12.70;;;14.40;99.90;;;;;;5039786;28;20394;-81
2022/09/25 11:01:11;;;;;;;15.20;10.90;;;14.20;99.90;;;;;;5037531;28;20478;-80
2022/09/25 11:03:57;;;;;;;13.50;10.83;;;14.10;99.90;;;;;;5038002;28;20395;-81
2022/09/25 11:06:51;;;;;;;11.70;10.60;;;14.00;99.90;;;;;;5039013;28;20391;-81
2022/09/25 11:09:43;;;;;;;8.90;8.10;;;14.00;99.90;;;;;;5038582;28;20379;-81
2022/09/25 11:12:29;;;;;;;11.60;8.00;;;14.00;99.90;;;;;;5079503;28;20436;-82
2022/09/25 11:15:19;;;;;;;8.53;7.73;;;13.90;99.90;;;;;;5081181;28;20736;-82
2022/09/25 11:18:05;;;;;;;8.27;5.93;;;13.90;99.90;;;;;;5081358;28;20380;-81
2022/09/25 11:21:01;;;;;;;3.73;3.43;;;13.90;99.90;;;;;;5080181;28;20516;-82
2022/09/25 11:24:11;;;;;;;5.27;4.87;;;13.80;99.90;;;;;;5081432;28;20385;-81
2022/09/25 11:27:24;;;;;;;4.70;4.30;;;13.90;99.90;;;;;;5064357;28;20377;-82
2022/09/25 11:30:17;;;;;;;4.50;4.10;;;13.70;99.90;;;;;;5079766;28;20420;-79
2022/09/25 11:33:12;;;;;;;6.90;4.27;;;13.70;99.90;;;;;;5078836;28;20477;-80
2022/09/25 11:36:05;;;;;;;4.60;3.43;;;13.70;99.90;;;;;;5084920;28;20708;-79
2022/09/25 11:42:13;;;;;;;3.60;3.20;;;13.70;99.90;;;;;;5079743;28;20586;-81
2022/09/25 11:45:12;;;;;;;4.40;3.90;;;13.50;99.90;;;;;;5065112;28;20735;-81
2022/09/25 11:48:22;;;;;;;3.40;3.07;;;13.40;99.90;;;;;;5079391;28;20531;-80
2022/09/25 11:51:26;;;;;;;2.87;2.67;;;13.40;99.90;;;;;;5079133;28;20812;-79
2022/09/25 11:54:34;;;;;;;3.20;2.90;;;13.30;99.90;;;;;;5080027;28;20431;-82
2022/09/25 11:57:36;;;;;;;2.50;2.30;;;13.30;99.90;;;;;;5079779;28;20491;-81
2022/09/25 12:00:35;;;;;;;2.67;2.47;;;13.40;99.90;;;;;;5079135;28;20416;-80
2022/09/25 12:03:44;;;;;;;2.47;2.27;;;13.50;99.90;;;;;;5081492;28;20503;-80
2022/09/25 12:06:48;;;;;;;2.90;2.67;;;13.50;99.90;;;;;;5083695;28;20397;-81
2022/09/25 12:09:47;;;;;;;3.33;3.03;;;13.60;99.90;;;;;;5083245;28;20740;-80
2022/09/25 12:12:58;;;;;;;2.90;2.60;;;13.60;99.90;;;;;;5069694;28;20390;-81
2022/09/25 12:16:08;;;;;;;2.57;2.33;;;13.40;99.90;;;;;;5071402;28;20384;-81
2022/09/25 12:19:15;;;;;;;3.50;2.40;;;13.40;99.90;;;;;;5075840;28;20413;-81
2022/09/25 12:22:12;;;;;;;4.10;3.80;;;13.50;99.90;;;;;;5082285;28;20421;-80
2022/09/25 12:25:19;;;;;;;4.33;2.40;;;13.50;99.90;;;;;;5082254;28;20637;-80
2022/09/25 12:28:35;;;;;;;2.67;2.47;;;13.60;99.90;;;;;;5081792;28;20423;-80
2022/09/25 12:31:52;;;;;;;2.90;2.20;;;13.70;99.90;;;;;;5082138;28;20478;-80
2022/09/25 12:35:06;;;;;;;2.20;2.03;;;13.90;99.90;;;;;;5082063;28;20436;-79
2022/09/25 12:38:00;;;;;;;3.40;2.27;;;13.80;99.90;;;;;;5070642;28;20469;-80
2022/09/25 12:40:54;;;;;;;2.40;2.20;;;13.90;99.90;;;;;;5081374;28;20894;-80
2022/09/25 12:43:50;;;;;;;2.10;2.00;;;14.40;99.90;;;;;;5081647;28;20959;-80
2022/09/25 12:46:52;;;;;;;1.80;1.70;;;14.60;99.90;;;;;;5083184;28;20741;-81
2022/09/25 12:49:44;;;;;;;2.53;2.33;;;14.80;99.90;;;;;;5067172;28;20404;-80
2022/09/25 12:52:36;;;;;;;3.40;2.47;;;15.30;99.90;;;;;;5081744;28;20765;-82
2022/09/25 12:55:34;;;;;;;2.37;2.20;;;15.50;99.90;;;;;;5081076;28;20409;-80
2022/09/25 12:58:34;;;;;;;2.50;1.97;;;15.50;99.90;;;;;;5081618;28;20389;-80
2022/09/25 13:01:32;;;;;;;2.27;2.00;;;15.50;99.90;;;;;;5067614;28;20562;-81
2022/09/25 13:04:36;;;;;;;3.93;2.37;;;15.60;99.90;;;;;;5081726;28;20393;-82
2022/09/25 13:07:41;;;;;;;2.47;2.20;;;15.40;99.90;;;;;;5081656;28;20401;-80
2022/09/25 13:10:40;;;;;;;2.63;2.43;;;15.30;99.90;;;;;;5081828;28;20393;-80
2022/09/25 13:13:29;;;;;;;2.37;2.17;;;15.10;99.90;;;;;;5052075;28;20389;-81
2022/09/25 13:16:14;;;;;;;2.43;2.23;;;15.10;99.90;;;;;;5080735;28;20423;-82
2022/09/25 13:19:24;;;;;;;2.73;2.30;;;14.60;99.90;;;;;;5066748;28;20462;-81
2022/09/25 13:22:12;;;;;;;2.90;2.70;;;14.40;99.90;;;;;;5081968;28;20866;-81
2022/09/25 13:25:13;;;;;;;2.50;2.30;;;14.40;99.90;;;;;;5082918;28;20394;-81
2022/09/25 13:28:06;;;;;;;2.63;2.20;;;14.40;99.90;;;;;;5081714;28;20751;-82
2022/09/25 13:31:11;;;;;;;2.53;2.33;;;14.40;99.90;;;;;;5082197;28;20385;-82
2022/09/25 13:34:08;;;;;;;2.20;2.00;;;14.90;99.90;;;;;;5081389;28;20443;-82
2022/09/25 13:36:55;;;;;;;6.23;2.40;;;14.80;99.90;;;;;;5082260;28;20409;-81
2022/09/25 13:42:48;;;;;;;2.10;1.90;;;15.10;99.90;;;;;;5082027;28;20844;-82
2022/09/25 13:45:33;;;;;;;2.30;2.10;;;15.30;99.90;;;;;;5081896;28;20451;-82
2022/09/25 13:48:35;;;;;;;2.50;2.30;;;15.40;99.90;;;;;;5081458;28;20393;-82
2022/09/25 13:51:26;;;;;;;2.70;2.50;;;15.50;99.90;;;;;;5080922;28;20458;-82
2022/09/25 13:54:27;;;;;;;1.90;1.80;;;15.30;99.90;;;;;;5081614;28;20412;-80
2022/09/25 13:57:14;;;;;;;1.83;1.73;;;15.40;99.90;;;;;;5078860;28;20424;-79
2022/09/25 14:00:02;;;;;;;2.10;1.90;;;15.30;99.90;;;;;;5078178;28;20409;-80
2022/09/25 14:02:49;;;;;;;2.33;2.13;;;15.50;99.90;;;;;;5064642;28;20504;-81
2022/09/25 14:05:35;;;;;;;2.20;2.00;;;15.40;99.90;;;;;;5064651;28;20396;-80
2022/09/25 14:08:20;;;;;;;2.47;2.27;;;15.80;99.90;;;;;;5081504;28;20452;-82
2022/09/25 14:11:09;;;;;;;2.83;2.47;;;16.00;99.90;;;;;;5081755;28;20415;-83
2022/09/25 14:13:54;;;;;;;3.47;2.83;;;15.80;99.90;;;;;;5066296;28;20443;-80
2022/09/25 14:16:49;;;;;;;2.87;2.53;;;15.20;99.90;;;;;;5081099;28;20435;-81
2022/09/25 14:19:38;;;;;;;2.73;2.53;;;15.00;99.90;;;;;;5066318;28;20388;-81
2022/09/25 14:22:43;;;;;;;3.00;2.17;;;14.90;99.90;;;;;;5081365;28;20452;-82
2022/09/25 14:25:32;;;;;;;2.73;2.53;;;15.20;99.90;;;;;;5084609;28;20458;-82
2022/09/25 14:28:27;;;;;;;2.60;2.40;;;15.10;99.90;;;;;;5085128;28;20409;-81
2022/09/25 14:31:36;;;;;;;2.90;2.67;;;14.90;99.90;;;;;;5083014;28;20428;-79
2022/09/25 14:34:43;;;;;;;3.80;3.50;;;14.80;99.90;;;;;;5080278;28;20389;-82
2022/09/25 14:38:06;;;;;;;4.77;4.37;;;14.90;99.90;;;;;;5079715;28;20402;-81
2022/09/25 14:41:04;;;;;;;2.90;2.67;;;15.00;99.90;;;;;;5080609;28;20447;-81
2022/09/25 14:44:24;;;;;;;3.10;2.40;;;14.70;99.90;;;;;;5080931;28;20389;-80
2022/09/25 14:47:12;;;;;;;2.60;2.40;;;14.70;99.90;;;;;;5070185;28;20415;-82
2022/09/25 14:49:58;;;;;;;3.00;2.70;;;14.70;99.90;;;;;;5081111;28;20373;-81
2022/09/25 14:52:42;;;;;;;2.57;2.37;;;14.60;99.90;;;;;;5050793;28;20404;-81
2022/09/25 14:55:35;;;;;;;2.90;2.57;;;14.70;99.90;;;;;;5080553;28;20382;-81
2022/09/25 14:58:26;;;;;;;2.63;2.43;;;14.70;99.90;;;;;;5065418;28;20459;-82
2022/09/25 15:01:21;;;;;;;2.83;2.63;;;14.70;99.90;;;;;;5080879;28;20463;-81
2022/09/25 15:04:07;;;;;;;2.23;2.07;;;14.80;99.90;;;;;;5081356;28;20394;-79